Time;durP1;ratioP1;P1;durP2;ratioP2;P2;SDS_P1;SDS_P2;PMS_P1;PMS_P2;Temp;Humidity;BMP_temperature;BMP_pressure;BME280_temperature;BME280_humidity;BME280_pressure;Samples;Min_cycle;Max_cycle;Signal;HPM_P1;HPM_P2
2023/03/17 00:00:12;;;;;;;;;;;;;;;16.45;36.29;93407.22;5071602;28;20378;-87
2023/03/17 00:02:40;;;;;;;;;;;;;;;16.46;35.99;93405.97;5083236;28;19945;-88
2023/03/17 00:05:13;;;;;;;;;;;;;;;16.46;36.21;93397.03;5053652;28;19963;-88
2023/03/17 00:07:39;;;;;;;;;;;;;;;16.44;36.07;93389.38;5070595;28;20001;-88
2023/03/17 00:10:08;;;;;;;;;;;;;;;16.46;36.06;93400.50;5051685;28;19931;-89
2023/03/17 00:12:34;;;;;;;;;;;;;;;16.46;36.08;93394.31;5068989;28;19935;-88
2023/03/17 00:14:59;;;;;;;;;;;;;;;16.47;36.38;93398.53;5068476;28;20181;-88
2023/03/17 00:17:24;;;;;;;;;;;;;;;16.48;35.93;93396.53;5101466;28;20065;-88
2023/03/17 00:19:50;;;;;;;;;;;;;;;16.45;36.09;93406.50;5051838;28;19924;-88
2023/03/17 00:22:15;;;;;;;;;;;;;;;16.46;36.10;93395.06;5067576;28;19967;-87
2023/03/17 00:24:41;;;;;;;;;;;;;;;16.46;36.39;93395.06;5069264;28;19921;-87
2023/03/17 00:27:09;;;;;;;;;;;;;;;16.45;36.53;93385.38;5076656;28;19932;-88
2023/03/17 00:29:35;;;;;;;;;;;;;;;16.47;36.00;93390.34;5065038;28;19924;-88
2023/03/17 00:32:01;;;;;;;;;;;;;;;16.45;36.40;93387.41;5081432;28;20007;-88
2023/03/17 00:34:27;;;;;;;;;;;;;;;16.43;36.23;93376.22;5068398;28;19924;-87
2023/03/17 00:36:52;;;;;;;;;;;;;;;16.41;36.52;93379.47;5068544;28;19930;-88
2023/03/17 00:39:17;;;;;;;;;;;;;;;16.43;36.17;93376.97;5067576;28;19928;-88
2023/03/17 00:41:43;;;;;;;;;;;;;;;16.44;36.37;93377.72;5051875;28;19924;-88
2023/03/17 00:44:08;;;;;;;;;;;;;;;16.44;36.23;93370.28;5067594;28;19935;-88
2023/03/17 00:46:37;;;;;;;;;;;;;;;16.45;36.40;93374.47;5068582;28;19928;-87
2023/03/17 00:49:05;;;;;;;;;;;;;;;16.44;36.43;93361.34;5052987;28;20398;-88
2023/03/17 00:51:31;;;;;;;;;;;;;;;16.45;36.57;93368.31;5069060;28;19932;-88
2023/03/17 00:53:56;;;;;;;;;;;;;;;16.44;36.28;93347.72;5068168;28;20444;-89
2023/03/17 00:56:22;;;;;;;;;;;;;;;16.44;36.46;93355.91;5067791;28;19932;-87
2023/03/17 00:58:47;;;;;;;;;;;;;;;16.42;36.29;93347.47;5081983;28;19928;-87
2023/03/17 01:01:12;;;;;;;;;;;;;;;16.42;36.48;93342.75;5040520;28;20488;-87
2023/03/17 01:03:38;;;;;;;;;;;;;;;16.42;36.50;93342.75;5047638;28;19978;-87
2023/03/17 01:06:03;;;;;;;;;;;;;;;16.43;36.38;93341.50;5044675;28;19940;-88
2023/03/17 01:08:29;;;;;;;;;;;;;;;16.41;36.41;93338.53;5083435;28;19924;-87
2023/03/17 01:10:55;;;;;;;;;;;;;;;16.41;36.80;93335.81;5067274;28;19988;-88
2023/03/17 01:13:20;;;;;;;;;;;;;;;16.41;36.56;93324.91;5063018;28;19950;-87
2023/03/17 01:15:46;;;;;;;;;;;;;;;16.42;36.61;93333.81;5062026;28;19943;-87
2023/03/17 01:18:12;;;;;;;;;;;;;;;16.41;36.76;93327.63;5079132;28;20016;-88
2023/03/17 01:20:37;;;;;;;;;;;;;;;16.42;36.47;93331.84;5075717;28;19970;-87
2023/03/17 01:23:03;;;;;;;;;;;;;;;16.42;36.77;93331.09;5069383;28;20395;-88
2023/03/17 01:25:28;;;;;;;;;;;;;;;16.42;36.94;93323.66;5085647;28;19971;-88
2023/03/17 01:27:54;;;;;;;;;;;;;;;16.43;36.63;93329.84;5076971;28;19928;-88
2023/03/17 01:30:22;;;;;;;;;;;;;;;16.42;36.86;93320.94;5104975;28;20452;-87
2023/03/17 01:32:47;;;;;;;;;;;;;;;16.42;36.83;93320.94;5104638;28;20120;-88
2023/03/17 01:35:12;;;;;;;;;;;;;;;16.42;36.80;93317.44;5121954;27;19924;-89
2023/03/17 01:37:38;;;;;;;;;;;;;;;16.40;36.89;93307.03;5114227;27;20156;-87
2023/03/17 01:40:04;;;;;;;;;;;;;;;16.41;36.61;93310.50;5084358;28;20006;-88
2023/03/17 01:42:29;;;;;;;;;;;;;;;16.40;36.68;93312.50;5121195;27;19930;-87
2023/03/17 01:45:02;;;;;;;;;;;;;;;16.40;36.90;93306.28;5091677;28;19924;-88
2023/03/17 01:47:29;;;;;;;;;;;;;;;16.40;36.74;93303.56;5058187;28;19970;-87
2023/03/17 01:49:55;;;;;;;;;;;;;;;16.40;36.37;93304.31;5071278;28;20403;-88
2023/03/17 01:52:20;;;;;;;;;;;;;;;16.40;36.48;93295.38;5075670;28;20390;-87
2023/03/17 01:54:50;;;;;;;;;;;;;;;16.39;36.64;93289.19;5073410;28;19951;-88
2023/03/17 01:57:20;;;;;;;;;;;;;;;16.40;36.59;93287.19;5063435;28;19928;-88
2023/03/17 01:59:46;;;;;;;;;;;;;;;16.39;36.82;93282.97;5067280;28;20303;-88
2023/03/17 02:02:13;;;;;;;;;;;;;;;16.38;36.53;93286.94;5066423;28;20665;-88
2023/03/17 02:04:39;;;;;;;;;;;;;;;16.37;36.86;93280.75;5067105;28;19978;-88
2023/03/17 02:07:04;;;;;;;;;;;;;;;16.38;36.73;93282.25;5083159;28;19932;-87
2023/03/17 02:09:30;;;;;;;;;;;;;;;16.37;36.63;93269.84;5083782;28;19925;-87
2023/03/17 02:11:55;;;;;;;;;;;;;;;16.39;36.88;93274.78;5084350;28;19928;-88
2023/03/17 02:14:20;;;;;;;;;;;;;;;16.39;36.76;93283.72;5083445;28;20062;-88
2023/03/17 02:16:46;;;;;;;;;;;;;;;16.40;36.85;93271.56;5066671;28;20413;-87
2023/03/17 02:19:11;;;;;;;;;;;;;;;16.41;36.85;93275.78;5067030;28;19955;-88
2023/03/17 02:21:40;;;;;;;;;;;;;;;16.41;36.52;93264.88;5066436;28;20007;-88
2023/03/17 02:24:07;;;;;;;;;;;;;;;16.39;36.48;93267.34;5082702;28;19925;-88
2023/03/17 02:26:33;;;;;;;;;;;;;;;16.40;36.63;93263.38;5083927;28;19935;-88
2023/03/17 02:28:58;;;;;;;;;;;;;;;16.39;36.85;93266.63;5066543;28;19925;-88
2023/03/17 02:31:24;;;;;;;;;;;;;;;16.37;36.78;93255.47;5066703;28;19928;-89
2023/03/17 02:33:51;;;;;;;;;;;;;;;16.39;36.69;93252.97;5050174;28;19928;-87
2023/03/17 02:36:16;;;;;;;;;;;;;;;16.41;36.61;93253.22;5066776;28;19928;-88
2023/03/17 02:38:41;;;;;;;;;;;;;;;16.40;36.82;93254.47;5066274;28;20473;-88
2023/03/17 02:41:08;;;;;;;;;;;;;;;16.39;36.69;93255.69;5066026;28;20003;-88
2023/03/17 02:43:33;;;;;;;;;;;;;;;16.38;36.80;93249.50;5050564;28;20083;-88
2023/03/17 02:46:00;;;;;;;;;;;;;;;16.40;36.96;93238.09;5049831;28;20086;-88
2023/03/17 02:48:25;;;;;;;;;;;;;;;16.37;37.07;93239.09;5066062;28;19925;-88
2023/03/17 02:50:50;;;;;;;;;;;;;;;16.36;36.93;93240.34;5066448;28;19920;-88
2023/03/17 02:53:15;;;;;;;;;;;;;;;16.37;36.82;93247.28;5065405;28;20202;-87
2023/03/17 02:55:42;;;;;;;;;;;;;;;16.36;36.83;93254.72;5100043;28;20147;-88
2023/03/17 02:58:08;;;;;;;;;;;;;;;16.37;36.80;93241.81;5099558;28;20017;-88
2023/03/17 03:00:33;;;;;;;;;;;;;;;16.35;36.93;93242.31;5049361;28;19979;-88
2023/03/17 03:02:59;;;;;;;;;;;;;;;16.36;36.75;93237.59;5066435;28;19935;-88
2023/03/17 03:05:25;;;;;;;;;;;;;;;16.36;36.94;93241.06;5065121;28;20038;-87
2023/03/17 03:07:51;;;;;;;;;;;;;;;16.37;37.25;93239.84;5065627;28;19929;-87
2023/03/17 03:10:17;;;;;;;;;;;;;;;16.37;37.11;93242.56;5082307;28;19920;-87
2023/03/17 03:12:42;;;;;;;;;;;;;;;16.37;36.93;93241.81;5066177;28;19951;-88
2023/03/17 03:15:08;;;;;;;;;;;;;;;16.35;36.92;93239.59;5065728;28;20291;-87
2023/03/17 03:17:34;;;;;;;;;;;;;;;16.36;36.92;93232.88;5049076;28;19925;-88
2023/03/17 03:19:59;;;;;;;;;;;;;;;16.35;36.86;93233.38;5065892;28;20380;-88
2023/03/17 03:22:24;;;;;;;;;;;;;;;16.31;37.01;93241.09;5082121;28;20320;-87
2023/03/17 03:24:49;;;;;;;;;;;;;;;16.31;37.22;93235.63;5082909;28;19974;-87
2023/03/17 03:27:15;;;;;;;;;;;;;;;16.31;36.85;93232.91;5065287;28;19990;-88
2023/03/17 03:29:41;;;;;;;;;;;;;;;16.32;37.20;93234.38;5065597;28;19925;-88
2023/03/17 03:32:07;;;;;;;;;;;;;;;16.34;36.93;93234.63;5082699;28;19990;-88
2023/03/17 03:34:32;;;;;;;;;;;;;;;16.35;36.95;93231.41;5082922;28;19924;-88
2023/03/17 03:36:57;;;;;;;;;;;;;;;16.35;37.23;93233.38;5082244;28;19928;-87
2023/03/17 03:39:22;;;;;;;;;;;;;;;16.34;36.95;93227.19;5077164;28;20253;-88
2023/03/17 03:41:47;;;;;;;;;;;;;;;16.35;37.38;93230.66;5048368;28;19935;-88
2023/03/17 03:44:13;;;;;;;;;;;;;;;16.35;37.25;93227.94;5065543;28;19928;-88
2023/03/17 03:46:38;;;;;;;;;;;;;;;16.35;37.27;93223.22;5065669;28;19963;-89
2023/03/17 03:49:03;;;;;;;;;;;;;;;16.34;36.93;93229.91;5082433;28;20038;-87
2023/03/17 03:51:29;;;;;;;;;;;;;;;16.31;37.07;93228.19;5064903;28;19952;-87
2023/03/17 03:53:54;;;;;;;;;;;;;;;16.29;37.01;93219.75;5081980;28;19928;-88
2023/03/17 03:56:19;;;;;;;;;;;;;;;16.32;36.99;93224.22;5064755;28;19928;-87
2023/03/17 03:58:45;;;;;;;;;;;;;;;16.30;36.92;93223.97;5082488;28;19928;-88
2023/03/17 04:01:10;;;;;;;;;;;;;;;16.28;36.92;93225.72;5048207;28;19948;-88
2023/03/17 04:03:36;;;;;;;;;;;;;;;16.29;37.41;93227.22;5064953;28;19924;-88
2023/03/17 04:06:02;;;;;;;;;;;;;;;16.30;37.39;93226.72;5064733;28;19925;-88
2023/03/17 04:08:27;;;;;;;;;;;;;;;16.31;37.33;93222.75;5065114;28;19928;-87
2023/03/17 04:10:52;;;;;;;;;;;;;;;16.33;36.96;93224.97;5081920;28;20402;-88
2023/03/17 04:13:18;;;;;;;;;;;;;;;16.33;37.13;93220.25;5065360;28;19973;-88
2023/03/17 04:15:43;;;;;;;;;;;;;;;16.33;36.86;93219.50;5048094;28;19924;-87
2023/03/17 04:18:08;;;;;;;;;;;;;;;16.32;37.04;93224.22;5081336;28;19924;-88
2023/03/17 04:20:33;;;;;;;;;;;;;;;16.32;37.36;93218.75;5048531;28;19925;-88
2023/03/17 04:22:59;;;;;;;;;;;;;;;16.32;37.01;93229.69;5048600;28;19929;-88
2023/03/17 04:25:25;;;;;;;;;;;;;;;16.31;37.08;93230.91;5047946;28;19974;-88
2023/03/17 04:27:50;;;;;;;;;;;;;;;16.32;37.20;93226.94;5081453;28;19971;-88
2023/03/17 04:30:16;;;;;;;;;;;;;;;16.32;37.11;93226.22;5064953;28;19956;-87
2023/03/17 04:32:42;;;;;;;;;;;;;;;16.31;36.96;93232.91;5081683;28;20271;-89
2023/03/17 04:35:09;;;;;;;;;;;;;;;16.30;37.07;93225.97;5048017;28;19955;-88
2023/03/17 04:37:35;;;;;;;;;;;;;;;16.31;37.19;93225.47;5048609;28;20139;-88
2023/03/17 04:40:00;;;;;;;;;;;;;;;16.32;36.89;93228.94;5064917;28;20315;-88
2023/03/17 04:42:25;;;;;;;;;;;;;;;16.32;37.28;93224.22;5064785;28;19928;-88
2023/03/17 04:44:50;;;;;;;;;;;;;;;16.31;37.29;93225.47;5065237;28;19928;-88
2023/03/17 04:47:15;;;;;;;;;;;;;;;16.31;37.00;93227.44;5064777;28;20406;-87
2023/03/17 04:49:41;;;;;;;;;;;;;;;16.32;37.35;93234.38;5052103;28;19928;-89
2023/03/17 04:52:06;;;;;;;;;;;;;;;16.32;37.05;93237.13;5067161;28;19978;-88
2023/03/17 04:54:31;;;;;;;;;;;;;;;16.33;37.15;93236.63;5085810;28;20339;-89
2023/03/17 04:56:57;;;;;;;;;;;;;;;16.32;37.33;93228.94;5051698;28;19920;-88
2023/03/17 04:59:22;;;;;;;;;;;;;;;16.31;37.01;93225.47;5054244;28;20309;-87
2023/03/17 05:01:47;;;;;;;;;;;;;;;16.31;37.29;93228.19;5071486;28;19956;-88
2023/03/17 05:04:13;;;;;;;;;;;;;;;16.32;37.06;93223.47;5067525;28;19977;-88
2023/03/17 05:06:38;;;;;;;;;;;;;;;16.31;37.36;93227.44;5102068;28;19936;-86
2023/03/17 05:09:03;;;;;;;;;;;;;;;16.33;37.14;93219.50;5067042;28;19928;-86
2023/03/17 05:11:28;;;;;;;;;;;;;;;16.33;37.61;93214.06;5083985;28;20363;-86
2023/03/17 05:13:54;;;;;;;;;;;;;;;16.36;37.33;93204.88;5084762;28;19934;-87
2023/03/17 05:16:19;;;;;;;;;;;;;;;16.36;37.11;93200.16;5057151;28;21420;-86
2023/03/17 05:18:44;;;;;;;;;;;;;;;16.36;37.26;93205.63;5082955;28;19924;-85
2023/03/17 05:21:10;;;;;;;;;;;;;;;16.38;37.05;93200.41;5083248;28;20240;-86
2023/03/17 05:23:35;;;;;;;;;;;;;;;16.37;37.43;93201.63;5068818;28;19925;-86
2023/03/17 05:26:00;;;;;;;;;;;;;;;16.38;37.32;93196.94;5066976;28;19924;-85
2023/03/17 05:28:26;;;;;;;;;;;;;;;16.38;37.26;93189.50;5100438;28;19935;-87
2023/03/17 05:30:52;;;;;;;;;;;;;;;16.38;37.43;93197.66;5084318;28;20474;-86
2023/03/17 05:33:17;;;;;;;;;;;;;;;16.38;37.46;93203.13;5082999;28;19932;-86
2023/03/17 05:35:43;;;;;;;;;;;;;;;16.37;37.42;93198.91;5067976;28;19943;-87
2023/03/17 05:38:08;;;;;;;;;;;;;;;16.35;37.20;93197.94;5067012;28;20027;-86
2023/03/17 05:40:34;;;;;;;;;;;;;;;16.33;37.41;93192.97;5050747;28;19978;-86
2023/03/17 05:42:59;;;;;;;;;;;;;;;16.34;37.64;93194.47;5101155;28;19924;-86
2023/03/17 05:45:25;;;;;;;;;;;;;;;16.34;37.18;93194.47;5067173;28;19974;-86
2023/03/17 05:47:50;;;;;;;;;;;;;;;16.34;37.19;93191.72;5067083;28;19924;-86
2023/03/17 05:50:16;;;;;;;;;;;;;;;16.34;37.45;93189.00;5066925;28;19959;-87
2023/03/17 05:52:41;;;;;;;;;;;;;;;16.36;37.27;93193.97;5066666;28;19978;-86
2023/03/17 05:55:07;;;;;;;;;;;;;;;16.35;37.25;93187.75;5084028;28;19967;-87
2023/03/17 05:57:32;;;;;;;;;;;;;;;16.35;37.34;93185.03;5099208;28;20601;-86
2023/03/17 05:59:57;;;;;;;;;;;;;;;16.31;37.05;93186.53;5083614;28;19932;-86
2023/03/17 06:02:23;;;;;;;;;;;;;;;16.22;32.75;93189.56;5082734;28;19921;-87
2023/03/17 06:04:48;;;;;;;;;;;;;;;16.11;31.23;93195.78;5049965;28;20390;-86
2023/03/17 06:07:13;;;;;;;;;;;;;;;16.00;30.47;93195.81;5066234;28;19924;-86
2023/03/17 06:09:39;;;;;;;;;;;;;;;15.99;30.73;93191.63;5062118;28;19928;-88
2023/03/17 06:12:05;;;;;;;;;;;;;;;15.99;30.33;93189.63;5066420;28;19929;-87
2023/03/17 06:14:31;;;;;;;;;;;;;;;16.05;30.41;93197.78;5101088;28;20023;-87
2023/03/17 06:16:56;;;;;;;;;;;;;;;16.06;30.66;93200.00;5067094;28;20007;-87
2023/03/17 06:19:21;;;;;;;;;;;;;;;16.09;31.41;93196.28;5066728;28;22344;-87
2023/03/17 06:21:46;;;;;;;;;;;;;;;16.12;32.04;93200.00;5067080;28;19951;-87
2023/03/17 06:24:12;;;;;;;;;;;;;;;16.16;32.89;93197.75;5066473;28;19955;-87
2023/03/17 06:26:37;;;;;;;;;;;;;;;16.20;33.63;93194.78;5100538;28;19920;-86
2023/03/17 06:29:04;;;;;;;;;;;;;;;16.23;34.35;93196.50;5082513;28;19959;-86
2023/03/17 06:31:32;;;;;;;;;;;;;;;16.25;35.04;93194.00;5065583;28;19928;-86
2023/03/17 06:33:57;;;;;;;;;;;;;;;16.24;35.41;93195.97;5083515;28;19929;-86
2023/03/17 06:36:23;;;;;;;;;;;;;;;16.17;32.48;93193.03;5077899;28;19927;-87
2023/03/17 06:38:48;;;;;;;;;;;;;;;16.05;30.72;93189.59;5079310;28;19932;-86
2023/03/17 06:41:13;;;;;;;;;;;;;;;16.00;31.21;93182.94;5093292;28;19932;-87
2023/03/17 06:43:39;;;;;;;;;;;;;;;16.02;30.76;93188.59;5072339;28;19928;-87
2023/03/17 06:46:06;;;;;;;;;;;;;;;16.07;31.43;93198.75;5063705;28;20378;-87
2023/03/17 06:48:31;;;;;;;;;;;;;;;16.11;31.70;93201.22;5061196;28;20103;-87
2023/03/17 06:50:56;;;;;;;;;;;;;;;16.16;31.90;93197.75;5072775;28;20401;-88
2023/03/17 06:53:22;;;;;;;;;;;;;;;16.20;32.39;93200.97;5067941;28;19932;-88
2023/03/17 06:55:47;;;;;;;;;;;;;;;16.24;33.07;93206.16;5070280;28;19928;-87
2023/03/17 06:58:14;;;;;;;;;;;;;;;16.26;33.63;93201.66;5054529;28;19947;-89
2023/03/17 07:00:40;;;;;;;;;;;;;;;16.29;33.62;93206.13;5071609;28;19928;-88
2023/03/17 07:03:05;;;;;;;;;;;;;;;16.30;34.03;93193.97;5053197;28;20279;-87
2023/03/17 07:05:31;;;;;;;;;;;;;;;16.33;34.50;93205.88;5063300;28;20223;-86
2023/03/17 07:07:57;;;;;;;;;;;;;;;16.35;34.35;93203.38;5066487;28;19935;-87
2023/03/17 07:10:23;;;;;;;;;;;;;;;16.36;34.36;93207.59;5046564;28;19932;-87
2023/03/17 07:12:48;;;;;;;;;;;;;;;16.39;34.31;93201.88;5081858;28;19977;-87
2023/03/17 07:15:14;;;;;;;;;;;;;;;16.39;34.19;93207.34;5080737;28;19928;-88
2023/03/17 07:17:39;;;;;;;;;;;;;;;16.41;34.35;93204.13;5052921;28;20278;-87
2023/03/17 07:20:05;;;;;;;;;;;;;;;16.41;34.31;93198.66;5043609;28;19934;-87
2023/03/17 07:22:30;;;;;;;;;;;;;;;16.42;34.43;93203.63;5073635;28;19920;-87
2023/03/17 07:24:55;;;;;;;;;;;;;;;16.45;34.32;93204.59;5082532;28;20519;-86
2023/03/17 07:27:24;;;;;;;;;;;;;;;16.45;34.67;93197.13;5081508;28;19952;-88
2023/03/17 07:29:49;;;;;;;;;;;;;;;16.44;34.43;93203.84;5071842;28;20306;-88
2023/03/17 07:32:14;;;;;;;;;;;;;;;16.43;34.57;93196.16;5084387;28;20028;-87
2023/03/17 07:34:40;;;;;;;;;;;;;;;16.44;34.36;93200.38;5083976;28;19938;-87
2023/03/17 07:37:05;;;;;;;;;;;;;;;16.44;34.89;93201.13;5071585;28;20018;-87
2023/03/17 07:39:31;;;;;;;;;;;;;;;16.46;34.48;93197.88;5062072;28;19935;-86
2023/03/17 07:41:57;;;;;;;;;;;;;;;16.45;34.56;93205.31;5077353;28;19924;-87
2023/03/17 07:44:22;;;;;;;;;;;;;;;16.48;34.95;93200.84;5073548;28;19932;-87
2023/03/17 07:46:47;;;;;;;;;;;;;;;16.49;34.96;93196.13;5073296;28;19920;-86
2023/03/17 07:49:13;;;;;;;;;;;;;;;16.52;34.80;93195.88;5080537;28;19923;-87
2023/03/17 07:51:41;;;;;;;;;;;;;;;16.52;34.69;93198.59;5044372;28;19964;-88
2023/03/17 07:54:07;;;;;;;;;;;;;;;16.56;34.89;93192.88;5097452;28;19924;-87
2023/03/17 07:56:32;;;;;;;;;;;;;;;16.56;34.61;93192.88;5051405;28;19946;-88
2023/03/17 07:58:57;;;;;;;;;;;;;;;16.55;35.03;93194.84;5068135;28;20006;-87
2023/03/17 08:01:24;;;;;;;;;;;;;;;16.58;34.89;93198.56;5046490;28;19921;-87
2023/03/17 08:03:49;;;;;;;;;;;;;;;16.58;34.83;93193.84;5076719;28;19936;-87
2023/03/17 08:06:14;;;;;;;;;;;;;;;16.55;34.74;93197.59;5079117;28;19924;-88
2023/03/17 08:08:40;;;;;;;;;;;;;;;16.57;34.85;93189.66;5069926;28;19920;-87
2023/03/17 08:11:06;;;;;;;;;;;;;;;16.61;35.30;93192.09;5051822;28;19970;-88
2023/03/17 08:13:32;;;;;;;;;;;;;;;16.60;34.79;93191.38;5078998;28;19924;-88
2023/03/17 08:15:57;;;;;;;;;;;;;;;16.60;34.88;93185.91;5103255;28;19935;-88
2023/03/17 08:18:22;;;;;;;;;;;;;;;16.61;34.81;93189.38;5071699;28;19931;-88
2023/03/17 08:20:48;;;;;;;;;;;;;;;16.61;34.96;93189.38;5069798;28;20138;-88
2023/03/17 08:23:13;;;;;;;;;;;;;;;16.62;35.22;93194.34;5090933;28;19953;-88
2023/03/17 08:25:38;;;;;;;;;;;;;;;16.63;35.25;93201.31;5058465;28;19933;-89
2023/03/17 08:28:04;;;;;;;;;;;;;;;16.63;35.30;93190.41;5050251;28;19967;-88
2023/03/17 08:30:30;;;;;;;;;;;;;;;16.63;35.08;93186.91;5080494;28;20412;-88
2023/03/17 08:32:55;;;;;;;;;;;;;;;16.63;35.04;93195.06;5092321;28;20016;-88
2023/03/17 08:35:21;;;;;;;;;;;;;;;16.63;35.40;93186.91;5077605;28;19959;-88
2023/03/17 08:37:47;;;;;;;;;;;;;;;16.66;34.95;93192.13;5068659;28;19921;-90
2023/03/17 08:40:15;;;;;;;;;;;;;;;16.65;35.36;93193.34;5098087;28;19927;-89
2023/03/17 08:42:41;;;;;;;;;;;;;;;16.66;34.88;93194.84;5043613;28;20257;-91
2023/03/17 08:45:08;;;;;;;;;;;;;;;16.66;35.31;93188.66;5071073;28;19974;-91
2023/03/17 08:47:34;;;;;;;;;;;;;;;16.65;35.12;93190.63;5060919;28;19924;-90
2023/03/17 08:49:59;;;;;;;;;;;;;;;16.66;35.39;93183.19;5068801;28;19928;-91
2023/03/17 08:52:25;;;;;;;;;;;;;;;16.69;35.23;93184.88;5110154;28;19924;-90
2023/03/17 08:54:50;;;;;;;;;;;;;;;16.70;35.23;93181.66;5063413;28;20216;-89
2023/03/17 08:57:16;;;;;;;;;;;;;;;16.69;35.19;93176.69;5051225;28;19925;-89
2023/03/17 08:59:41;;;;;;;;;;;;;;;16.71;35.11;93182.41;5045240;28;20007;-89
2023/03/17 09:02:08;;;;;;;;;;;;;;;16.72;35.22;93184.63;5069964;28;19920;-90
2023/03/17 09:04:35;;;;;;;;;;;;;;;16.75;35.48;93188.31;5065833;28;19928;-90
2023/03/17 09:07:00;;;;;;;;;;;;;;;16.79;35.75;93180.63;5065193;28;19924;-89
2023/03/17 09:09:26;;;;;;;;;;;;;;;16.82;35.53;93174.16;5070126;28;19927;-90
2023/03/17 09:11:51;;;;;;;;;;;;;;;16.84;34.99;93181.84;5055243;28;19932;-88
2023/03/17 09:14:17;;;;;;;;;;;;;;;16.84;34.49;93179.09;5082457;28;19929;-88
2023/03/17 09:16:42;;;;;;;;;;;;;;;16.85;34.07;93175.13;5078219;28;19928;-89
2023/03/17 09:19:07;;;;;;;;;;;;;;;16.86;33.80;93176.63;5073919;28;19924;-88
2023/03/17 09:21:33;;;;;;;;;;;;;;;16.86;33.93;93185.53;5073692;28;20369;-87
2023/03/17 09:23:58;;;;;;;;;;;;;;;16.87;33.21;93178.84;5090960;28;20036;-87
2023/03/17 09:26:25;;;;;;;;;;;;;;;16.87;33.10;93189.75;5089401;28;19924;-88
2023/03/17 09:28:51;;;;;;;;;;;;;;;16.89;32.85;93198.16;5048818;28;19921;-88
2023/03/17 09:31:16;;;;;;;;;;;;;;;16.88;33.36;93187.78;5062451;28;20035;-88
2023/03/17 09:33:41;;;;;;;;;;;;;;;16.86;33.45;93187.53;5084040;28;19989;-91
2023/03/17 09:36:07;;;;;;;;;;;;;;;16.83;33.17;93191.28;5077779;28;19929;-91
2023/03/17 09:38:32;;;;;;;;;;;;;;;16.82;34.07;93190.53;5077911;28;19924;-91
2023/03/17 09:40:58;;;;;;;;;;;;;;;16.82;34.52;93187.81;5097335;28;19928;-92
2023/03/17 09:43:31;;;;;;;;;;;;;;;16.83;35.07;93188.53;5103748;28;20018;-89
2023/03/17 09:45:56;;;;;;;;;;;;;;;16.83;35.38;93194.75;5124991;27;20296;-89
2023/03/17 09:48:42;;;;;;;;;;;;;;;16.81;35.39;93188.31;5082770;28;20003;-91
2023/03/17 09:51:08;;;;;;;;;;;;;;;16.81;35.50;93183.59;5088360;28;19946;-89
2023/03/17 09:53:48;;;;;;;;;;;;;;;16.81;35.38;93194.50;5122796;27;19927;-89
2023/03/17 09:56:15;;;;;;;;;;;;;;;16.81;35.63;93199.97;5102768;28;19927;-89
2023/03/17 09:58:41;;;;;;;;;;;;;;;16.81;35.55;93185.56;5088384;28;19920;-89
2023/03/17 10:01:07;;;;;;;;;;;;;;;16.81;35.28;93199.22;5049725;28;19932;-90
2023/03/17 10:03:33;;;;;;;;;;;;;;;16.83;35.52;93174.91;5088861;28;19925;-89
2023/03/17 10:06:00;;;;;;;;;;;;;;;16.83;35.50;93183.09;5087787;28;20278;-90
2023/03/17 10:08:29;;;;;;;;;;;;;;;16.82;35.55;93179.63;5086234;28;20517;-92
2023/03/17 10:10:58;;;;;;;;;;;;;;;16.83;35.46;93183.81;5082204;28;19956;-90
2023/03/17 10:13:26;;;;;;;;;;;;;;;16.85;35.70;93177.88;5090544;28;19920;-89
2023/03/17 10:15:57;;;;;;;;;;;;;;;16.86;35.40;93173.88;5096287;28;20441;-88
2023/03/17 10:18:23;;;;;;;;;;;;;;;16.85;35.67;93177.88;5057052;28;19989;-86
2023/03/17 10:20:51;;;;;;;;;;;;;;;16.83;35.52;93178.38;5077932;28;19932;-89
2023/03/17 10:23:17;;;;;;;;;;;;;;;16.84;35.84;93173.66;5067101;28;20015;-89
2023/03/17 10:25:42;;;;;;;;;;;;;;;16.86;35.64;93180.09;5064343;28;19992;-90
2023/03/17 10:28:11;;;;;;;;;;;;;;;16.86;35.90;93190.25;5055855;28;19988;-89
2023/03/17 10:30:37;;;;;;;;;;;;;;;16.84;35.07;93179.84;5081567;28;19984;-88
2023/03/17 10:33:05;;;;;;;;;;;;;;;16.84;35.07;93168.94;5068274;28;20404;-88
2023/03/17 10:35:34;;;;;;;;;;;;;;;16.86;35.40;93173.88;5057537;28;19927;-88
2023/03/17 10:38:00;;;;;;;;;;;;;;;16.84;35.53;93168.19;5082807;28;19928;-88
2023/03/17 10:40:27;;;;;;;;;;;;;;;16.83;35.24;93164.72;5071728;28;19950;-88
2023/03/17 10:43:04;;;;;;;;;;;;;;;16.83;35.62;93170.19;5079337;28;19969;-88
2023/03/17 10:45:31;;;;;;;;;;;;;;;16.84;35.49;93162.72;5083011;28;20007;-88
2023/03/17 10:47:57;;;;;;;;;;;;;;;16.82;35.74;93162.50;5056446;28;20152;-88
2023/03/17 10:50:25;;;;;;;;;;;;;;;16.83;35.87;93151.06;5076197;28;20317;-88
2023/03/17 10:52:59;;;;;;;;;;;;;;;16.83;35.52;93153.06;5084608;28;19947;-91
2023/03/17 10:55:26;;;;;;;;;;;;;;;16.84;35.85;93147.09;5049812;28;20295;-89
2023/03/17 10:57:56;;;;;;;;;;;;;;;16.85;35.59;93136.91;5079158;28;19978;-88
2023/03/17 11:00:22;;;;;;;;;;;;;;;16.84;35.92;93147.09;5086526;28;19920;-88
2023/03/17 11:02:52;;;;;;;;;;;;;;;16.82;35.65;93138.66;5080119;28;19927;-88
2023/03/17 11:05:21;;;;;;;;;;;;;;;16.83;36.16;93129.22;5065566;28;19955;-89
2023/03/17 11:07:46;;;;;;;;;;;;;;;16.83;36.04;93131.22;5084058;28;19927;-89
2023/03/17 11:10:22;;;;;;;;;;;;;;;16.83;35.86;93121.03;5060467;28;19924;-90
2023/03/17 11:13:00;;;;;;;;;;;;;;;16.84;36.03;93113.59;5084985;28;20511;-89
2023/03/17 11:15:28;;;;;;;;;;;;;;;16.82;35.94;93119.56;5067603;28;19952;-88
2023/03/17 11:18:03;;;;;;;;;;;;;;;16.80;35.79;93113.84;5081432;28;19973;-88
2023/03/17 11:20:43;;;;;;;;;;;;;;;16.82;36.12;93118.81;5072356;28;19980;-89
2023/03/17 11:23:27;;;;;;;;;;;;;;;16.82;36.03;93113.34;5093569;28;19932;-91
2023/03/17 11:26:02;;;;;;;;;;;;;;;16.82;35.89;93107.91;5093314;28;19955;-88
2023/03/17 11:28:29;;;;;;;;;;;;;;;16.84;36.18;93094.47;5078016;28;19977;-89
2023/03/17 11:31:07;;;;;;;;;;;;;;;16.82;36.12;93100.44;5087891;28;19928;-89
2023/03/17 11:33:33;;;;;;;;;;;;;;;16.79;36.21;93104.94;5058377;28;19925;-88
2023/03/17 11:35:58;;;;;;;;;;;;;;;16.79;36.02;93110.38;5100134;28;19924;-88
2023/03/17 11:38:27;;;;;;;;;;;;;;;16.79;35.87;93104.94;5095852;28;19977;-89
2023/03/17 11:41:02;;;;;;;;;;;;;;;16.82;36.30;93110.63;5077228;28;19928;-88
2023/03/17 11:43:39;;;;;;;;;;;;;;;16.82;36.14;93092.25;5106062;28;19963;-89
2023/03/17 11:46:23;;;;;;;;;;;;;;;16.83;35.83;93093.00;5126170;27;19963;-88
2023/03/17 11:49:05;;;;;;;;;;;;;;;16.81;36.31;93096.22;5108413;28;19941;-88
2023/03/17 11:51:40;;;;;;;;;;;;;;;16.84;36.04;93100.69;5090552;28;19924;-89
2023/03/17 11:54:23;;;;;;;;;;;;;;;16.82;35.78;93084.06;5113853;28;19924;-88
2023/03/17 11:57:15;;;;;;;;;;;;;;;16.82;36.30;93086.06;5098079;28;20017;-91
2023/03/17 11:59:40;;;;;;;;;;;;;;;16.83;36.33;93088.28;5019990;28;19936;-88
2023/03/17 12:02:18;;;;;;;;;;;;;;;16.84;36.11;93095.22;5042991;28;19922;-90
2023/03/17 12:04:52;;;;;;;;;;;;;;;16.83;36.36;93093.00;5037183;28;19929;-89
2023/03/17 12:07:20;;;;;;;;;;;;;;;16.81;36.32;93084.56;5024283;28;20372;-90
2023/03/17 12:09:54;;;;;;;;;;;;;;;16.84;36.36;93078.09;5015587;28;19997;-89
2023/03/17 12:12:22;;;;;;;;;;;;;;;16.83;36.24;93076.63;5017734;28;19929;-87
2023/03/17 12:14:47;;;;;;;;;;;;;;;16.82;36.03;93073.16;5054700;28;20422;-89
2023/03/17 12:17:20;;;;;;;;;;;;;;;16.81;36.27;93079.84;5027553;28;19932;-88
2023/03/17 12:20:04;;;;;;;;;;;;;;;16.81;36.26;93081.84;5036583;28;19921;-89
2023/03/17 12:22:34;;;;;;;;;;;;;;;16.79;36.08;93074.91;5057582;28;19928;-88
2023/03/17 12:24:59;;;;;;;;;;;;;;;16.80;36.10;93075.63;5042026;28;19924;-89
2023/03/17 12:27:26;;;;;;;;;;;;;;;16.79;36.19;93069.44;5040409;28;19928;-90
2023/03/17 12:29:55;;;;;;;;;;;;;;;16.81;36.13;93076.38;5023391;28;19925;-90
2023/03/17 12:32:23;;;;;;;;;;;;;;;16.81;36.36;93070.94;5020398;28;19980;-89
2023/03/17 12:34:51;;;;;;;;;;;;;;;16.79;36.34;93060.50;5031923;28;19912;-89
2023/03/17 12:37:16;;;;;;;;;;;;;;;16.82;36.49;93070.41;5076508;28;20306;-89
2023/03/17 12:39:45;;;;;;;;;;;;;;;16.82;36.35;93066.94;5077857;28;19932;-88
2023/03/17 12:42:16;;;;;;;;;;;;;;;16.81;36.16;93068.94;5077649;28;20383;-88
2023/03/17 12:44:44;;;;;;;;;;;;;;;16.80;36.66;93064.72;5062786;28;19925;-88